sensor_id;sensor_type;location;lat;lon;timestamp;P1;durP1;ratioP1;P2;durP2;ratioP2
84510;SDS011;74730;43.858;18.424;2024-01-30T00:01:41;17.20;;;9.43;;
84510;SDS011;74730;43.858;18.424;2024-01-30T00:04:06;20.55;;;9.90;;
84510;SDS011;74730;43.858;18.424;2024-01-30T00:06:32;15.57;;;8.82;;
84510;SDS011;74730;43.858;18.424;2024-01-30T00:08:57;20.10;;;10.15;;
84510;SDS011;74730;43.858;18.424;2024-01-30T00:11:23;16.10;;;9.50;;
84510;SDS011;74730;43.858;18.424;2024-01-30T00:13:51;15.35;;;9.85;;
84510;SDS011;74730;43.858;18.424;2024-01-30T00:16:23;15.90;;;9.32;;
84510;SDS011;74730;43.858;18.424;2024-01-30T00:18:52;19.50;;;9.38;;
84510;SDS011;74730;43.858;18.424;2024-01-30T00:21:19;17.45;;;8.93;;
84510;SDS011;74730;43.858;18.424;2024-01-30T00:23:45;19.35;;;9.98;;
84510;SDS011;74730;43.858;18.424;2024-01-30T00:26:11;20.33;;;10.15;;
84510;SDS011;74730;43.858;18.424;2024-01-30T00:28:38;18.15;;;9.50;;
84510;SDS011;74730;43.858;18.424;2024-01-30T00:31:04;19.77;;;9.27;;
84510;SDS011;74730;43.858;18.424;2024-01-30T00:33:29;18.25;;;9.65;;
84510;SDS011;74730;43.858;18.424;2024-01-30T00:35:55;16.02;;;8.70;;
84510;SDS011;74730;43.858;18.424;2024-01-30T00:38:20;17.30;;;8.27;;
84510;SDS011;74730;43.858;18.424;2024-01-30T00:40:46;15.50;;;8.27;;
84510;SDS011;74730;43.858;18.424;2024-01-30T00:43:12;16.05;;;8.32;;
84510;SDS011;74730;43.858;18.424;2024-01-30T00:45:37;23.90;;;9.40;;
84510;SDS011;74730;43.858;18.424;2024-01-30T00:48:03;20.17;;;8.88;;
84510;SDS011;74730;43.858;18.424;2024-01-30T00:50:29;15.82;;;8.27;;
84510;SDS011;74730;43.858;18.424;2024-01-30T00:52:54;14.02;;;7.57;;
84510;SDS011;74730;43.858;18.424;2024-01-30T00:55:20;16.27;;;8.00;;
84510;SDS011;74730;43.858;18.424;2024-01-30T00:57:46;20.98;;;8.15;;
84510;SDS011;74730;43.858;18.424;2024-01-30T01:00:12;14.23;;;7.65;;
84510;SDS011;74730;43.858;18.424;2024-01-30T01:02:41;16.38;;;8.20;;
84510;SDS011;74730;43.858;18.424;2024-01-30T01:05:07;15.13;;;9.10;;
84510;SDS011;74730;43.858;18.424;2024-01-30T01:07:33;16.17;;;8.38;;
84510;SDS011;74730;43.858;18.424;2024-01-30T01:09:59;17.50;;;9.10;;
84510;SDS011;74730;43.858;18.424;2024-01-30T01:12:24;16.48;;;9.82;;
84510;SDS011;74730;43.858;18.424;2024-01-30T01:14:50;17.27;;;8.77;;
84510;SDS011;74730;43.858;18.424;2024-01-30T01:17:15;15.18;;;8.85;;
84510;SDS011;74730;43.858;18.424;2024-01-30T01:19:41;15.30;;;7.57;;
84510;SDS011;74730;43.858;18.424;2024-01-30T01:22:06;13.07;;;8.07;;
84510;SDS011;74730;43.858;18.424;2024-01-30T01:24:32;17.30;;;8.85;;
84510;SDS011;74730;43.858;18.424;2024-01-30T01:26:58;17.02;;;7.68;;
84510;SDS011;74730;43.858;18.424;2024-01-30T01:29:24;16.30;;;8.50;;
84510;SDS011;74730;43.858;18.424;2024-01-30T01:31:54;17.58;;;7.57;;
84510;SDS011;74730;43.858;18.424;2024-01-30T01:34:21;15.85;;;8.25;;
84510;SDS011;74730;43.858;18.424;2024-01-30T01:36:47;16.95;;;8.55;;
84510;SDS011;74730;43.858;18.424;2024-01-30T01:39:12;15.63;;;8.77;;
84510;SDS011;74730;43.858;18.424;2024-01-30T01:41:38;16.20;;;8.95;;
84510;SDS011;74730;43.858;18.424;2024-01-30T01:44:03;14.48;;;8.68;;
84510;SDS011;74730;43.858;18.424;2024-01-30T01:46:31;18.20;;;9.38;;
84510;SDS011;74730;43.858;18.424;2024-01-30T01:48:59;19.58;;;9.18;;
84510;SDS011;74730;43.858;18.424;2024-01-30T01:51:26;18.35;;;9.88;;
84510;SDS011;74730;43.858;18.424;2024-01-30T01:53:56;20.40;;;10.02;;
84510;SDS011;74730;43.858;18.424;2024-01-30T01:56:23;19.30;;;11.10;;
84510;SDS011;74730;43.858;18.424;2024-01-30T01:58:49;30.38;;;13.60;;
84510;SDS011;74730;43.858;18.424;2024-01-30T02:01:17;21.33;;;10.88;;
84510;SDS011;74730;43.858;18.424;2024-01-30T02:03:45;16.73;;;9.07;;
84510;SDS011;74730;43.858;18.424;2024-01-30T02:06:11;15.95;;;8.63;;
84510;SDS011;74730;43.858;18.424;2024-01-30T02:08:37;13.40;;;8.20;;
84510;SDS011;74730;43.858;18.424;2024-01-30T02:11:03;19.77;;;10.57;;
84510;SDS011;74730;43.858;18.424;2024-01-30T02:13:29;22.42;;;11.13;;
84510;SDS011;74730;43.858;18.424;2024-01-30T02:15:54;21.10;;;11.15;;
84510;SDS011;74730;43.858;18.424;2024-01-30T02:18:20;18.70;;;9.93;;
84510;SDS011;74730;43.858;18.424;2024-01-30T02:20:48;19.27;;;9.70;;
84510;SDS011;74730;43.858;18.424;2024-01-30T02:23:17;17.98;;;9.82;;
84510;SDS011;74730;43.858;18.424;2024-01-30T02:25:44;26.25;;;13.10;;
84510;SDS011;74730;43.858;18.424;2024-01-30T02:28:11;24.13;;;11.40;;
84510;SDS011;74730;43.858;18.424;2024-01-30T02:30:37;22.10;;;10.32;;
84510;SDS011;74730;43.858;18.424;2024-01-30T02:33:04;28.05;;;12.15;;
84510;SDS011;74730;43.858;18.424;2024-01-30T02:35:29;27.67;;;12.15;;
84510;SDS011;74730;43.858;18.424;2024-01-30T02:37:55;28.17;;;11.27;;
84510;SDS011;74730;43.858;18.424;2024-01-30T02:40:21;21.95;;;11.25;;
84510;SDS011;74730;43.858;18.424;2024-01-30T02:42:46;22.83;;;11.55;;
84510;SDS011;74730;43.858;18.424;2024-01-30T02:45:12;25.02;;;11.88;;
84510;SDS011;74730;43.858;18.424;2024-01-30T02:47:38;23.75;;;11.80;;
84510;SDS011;74730;43.858;18.424;2024-01-30T02:50:04;23.10;;;11.75;;
84510;SDS011;74730;43.858;18.424;2024-01-30T02:52:30;22.58;;;11.00;;
84510;SDS011;74730;43.858;18.424;2024-01-30T02:54:55;30.38;;;13.48;;
84510;SDS011;74730;43.858;18.424;2024-01-30T02:57:21;30.17;;;14.15;;
84510;SDS011;74730;43.858;18.424;2024-01-30T02:59:47;25.95;;;11.25;;
84510;SDS011;74730;43.858;18.424;2024-01-30T03:02:12;22.65;;;10.48;;
84510;SDS011;74730;43.858;18.424;2024-01-30T03:04:40;28.65;;;11.82;;
84510;SDS011;74730;43.858;18.424;2024-01-30T03:07:06;31.77;;;13.38;;
84510;SDS011;74730;43.858;18.424;2024-01-30T03:09:32;28.15;;;13.02;;
84510;SDS011;74730;43.858;18.424;2024-01-30T03:11:57;26.60;;;12.68;;
84510;SDS011;74730;43.858;18.424;2024-01-30T03:14:23;26.10;;;12.52;;
84510;SDS011;74730;43.858;18.424;2024-01-30T03:16:48;24.83;;;12.13;;
84510;SDS011;74730;43.858;18.424;2024-01-30T03:19:14;28.08;;;12.02;;
84510;SDS011;74730;43.858;18.424;2024-01-30T03:21:39;24.75;;;11.68;;
84510;SDS011;74730;43.858;18.424;2024-01-30T03:24:05;22.27;;;11.35;;
84510;SDS011;74730;43.858;18.424;2024-01-30T03:26:30;24.15;;;12.57;;
84510;SDS011;74730;43.858;18.424;2024-01-30T03:28:56;24.52;;;11.82;;
84510;SDS011;74730;43.858;18.424;2024-01-30T03:31:21;28.17;;;12.43;;
84510;SDS011;74730;43.858;18.424;2024-01-30T03:33:47;24.85;;;13.32;;
84510;SDS011;74730;43.858;18.424;2024-01-30T03:36:13;24.65;;;10.98;;
84510;SDS011;74730;43.858;18.424;2024-01-30T03:38:40;25.00;;;12.90;;
84510;SDS011;74730;43.858;18.424;2024-01-30T03:41:07;26.35;;;12.52;;
84510;SDS011;74730;43.858;18.424;2024-01-30T03:43:33;27.08;;;12.65;;
84510;SDS011;74730;43.858;18.424;2024-01-30T03:45:59;25.15;;;13.15;;
84510;SDS011;74730;43.858;18.424;2024-01-30T03:48:26;27.83;;;14.27;;
84510;SDS011;74730;43.858;18.424;2024-01-30T03:50:52;38.30;;;17.65;;
84510;SDS011;74730;43.858;18.424;2024-01-30T03:53:17;32.58;;;15.40;;
84510;SDS011;74730;43.858;18.424;2024-01-30T03:55:43;36.47;;;16.35;;
84510;SDS011;74730;43.858;18.424;2024-01-30T03:58:08;28.20;;;14.50;;
84510;SDS011;74730;43.858;18.424;2024-01-30T04:00:34;29.15;;;14.02;;
84510;SDS011;74730;43.858;18.424;2024-01-30T04:03:00;31.67;;;15.75;;
84510;SDS011;74730;43.858;18.424;2024-01-30T04:05:26;43.88;;;19.38;;
84510;SDS011;74730;43.858;18.424;2024-01-30T04:07:51;27.20;;;13.27;;
84510;SDS011;74730;43.858;18.424;2024-01-30T04:10:17;30.52;;;14.77;;
84510;SDS011;74730;43.858;18.424;2024-01-30T04:12:42;30.00;;;14.18;;
84510;SDS011;74730;43.858;18.424;2024-01-30T04:15:08;31.73;;;13.93;;
84510;SDS011;74730;43.858;18.424;2024-01-30T04:17:34;28.30;;;13.65;;
84510;SDS011;74730;43.858;18.424;2024-01-30T04:19:59;31.48;;;13.82;;
84510;SDS011;74730;43.858;18.424;2024-01-30T04:22:25;30.70;;;15.15;;
84510;SDS011;74730;43.858;18.424;2024-01-30T04:24:50;35.22;;;13.80;;
84510;SDS011;74730;43.858;18.424;2024-01-30T04:27:16;24.92;;;12.82;;
84510;SDS011;74730;43.858;18.424;2024-01-30T04:29:41;23.33;;;11.98;;
84510;SDS011;74730;43.858;18.424;2024-01-30T04:32:07;20.17;;;10.63;;
84510;SDS011;74730;43.858;18.424;2024-01-30T04:34:32;25.30;;;11.40;;
84510;SDS011;74730;43.858;18.424;2024-01-30T04:36:58;25.30;;;13.32;;
84510;SDS011;74730;43.858;18.424;2024-01-30T04:39:24;38.60;;;16.48;;
84510;SDS011;74730;43.858;18.424;2024-01-30T04:41:49;28.05;;;13.80;;
84510;SDS011;74730;43.858;18.424;2024-01-30T04:44:15;27.05;;;13.70;;
84510;SDS011;74730;43.858;18.424;2024-01-30T04:46:40;26.55;;;13.70;;
84510;SDS011;74730;43.858;18.424;2024-01-30T04:49:06;25.00;;;13.23;;
84510;SDS011;74730;43.858;18.424;2024-01-30T04:51:33;25.38;;;12.05;;
84510;SDS011;74730;43.858;18.424;2024-01-30T04:53:58;25.20;;;13.75;;
84510;SDS011;74730;43.858;18.424;2024-01-30T04:56:24;26.63;;;13.27;;
84510;SDS011;74730;43.858;18.424;2024-01-30T04:58:50;29.45;;;13.25;;
84510;SDS011;74730;43.858;18.424;2024-01-30T05:01:16;25.02;;;10.90;;
84510;SDS011;74730;43.858;18.424;2024-01-30T05:03:42;23.05;;;11.70;;
84510;SDS011;74730;43.858;18.424;2024-01-30T05:06:07;23.10;;;9.73;;
84510;SDS011;74730;43.858;18.424;2024-01-30T05:08:33;21.23;;;10.30;;
84510;SDS011;74730;43.858;18.424;2024-01-30T05:11:00;24.10;;;10.73;;
84510;SDS011;74730;43.858;18.424;2024-01-30T05:13:27;17.23;;;8.15;;
84510;SDS011;74730;43.858;18.424;2024-01-30T05:15:52;21.55;;;9.65;;
84510;SDS011;74730;43.858;18.424;2024-01-30T05:18:18;24.55;;;10.60;;
84510;SDS011;74730;43.858;18.424;2024-01-30T05:20:43;24.40;;;10.10;;
84510;SDS011;74730;43.858;18.424;2024-01-30T05:23:09;18.77;;;9.23;;
84510;SDS011;74730;43.858;18.424;2024-01-30T05:25:34;30.33;;;14.13;;
84510;SDS011;74730;43.858;18.424;2024-01-30T05:28:00;32.75;;;15.45;;
84510;SDS011;74730;43.858;18.424;2024-01-30T05:30:25;31.83;;;15.10;;
84510;SDS011;74730;43.858;18.424;2024-01-30T05:32:51;34.05;;;15.85;;
84510;SDS011;74730;43.858;18.424;2024-01-30T05:35:17;28.70;;;13.05;;
84510;SDS011;74730;43.858;18.424;2024-01-30T05:37:43;39.10;;;17.90;;
84510;SDS011;74730;43.858;18.424;2024-01-30T05:40:09;46.65;;;20.75;;
84510;SDS011;74730;43.858;18.424;2024-01-30T05:42:35;54.75;;;23.58;;
84510;SDS011;74730;43.858;18.424;2024-01-30T05:45:00;47.55;;;23.65;;
84510;SDS011;74730;43.858;18.424;2024-01-30T05:47:26;37.92;;;18.20;;
84510;SDS011;74730;43.858;18.424;2024-01-30T05:49:51;27.35;;;12.00;;
84510;SDS011;74730;43.858;18.424;2024-01-30T05:52:17;31.70;;;14.02;;
84510;SDS011;74730;43.858;18.424;2024-01-30T05:54:44;26.00;;;13.20;;
84510;SDS011;74730;43.858;18.424;2024-01-30T05:57:09;23.95;;;11.00;;
84510;SDS011;74730;43.858;18.424;2024-01-30T05:59:35;21.95;;;11.32;;
84510;SDS011;74730;43.858;18.424;2024-01-30T06:02:01;22.15;;;10.80;;
84510;SDS011;74730;43.858;18.424;2024-01-30T06:04:27;27.92;;;12.13;;
84510;SDS011;74730;43.858;18.424;2024-01-30T06:06:52;19.77;;;10.77;;
84510;SDS011;74730;43.858;18.424;2024-01-30T06:09:18;21.75;;;10.70;;
84510;SDS011;74730;43.858;18.424;2024-01-30T06:11:43;19.75;;;10.98;;
84510;SDS011;74730;43.858;18.424;2024-01-30T06:14:09;19.42;;;11.80;;
84510;SDS011;74730;43.858;18.424;2024-01-30T06:16:34;27.13;;;12.88;;
84510;SDS011;74730;43.858;18.424;2024-01-30T06:19:00;33.13;;;13.95;;
84510;SDS011;74730;43.858;18.424;2024-01-30T06:21:25;20.55;;;10.18;;
84510;SDS011;74730;43.858;18.424;2024-01-30T06:23:51;22.65;;;10.52;;
84510;SDS011;74730;43.858;18.424;2024-01-30T06:26:16;23.92;;;12.32;;
84510;SDS011;74730;43.858;18.424;2024-01-30T06:28:42;30.10;;;14.73;;
84510;SDS011;74730;43.858;18.424;2024-01-30T06:31:07;24.08;;;10.88;;
84510;SDS011;74730;43.858;18.424;2024-01-30T06:33:33;19.73;;;11.07;;
84510;SDS011;74730;43.858;18.424;2024-01-30T06:35:59;21.65;;;11.10;;
84510;SDS011;74730;43.858;18.424;2024-01-30T06:38:24;23.77;;;11.77;;
84510;SDS011;74730;43.858;18.424;2024-01-30T06:40:50;30.25;;;13.25;;
84510;SDS011;74730;43.858;18.424;2024-01-30T06:43:15;23.52;;;12.38;;
84510;SDS011;74730;43.858;18.424;2024-01-30T06:45:41;21.92;;;10.93;;
84510;SDS011;74730;43.858;18.424;2024-01-30T06:48:08;21.92;;;10.02;;
84510;SDS011;74730;43.858;18.424;2024-01-30T06:50:33;28.00;;;11.07;;
84510;SDS011;74730;43.858;18.424;2024-01-30T06:52:59;22.83;;;10.48;;
84510;SDS011;74730;43.858;18.424;2024-01-30T06:55:24;22.63;;;11.80;;
84510;SDS011;74730;43.858;18.424;2024-01-30T06:57:50;23.60;;;11.45;;
84510;SDS011;74730;43.858;18.424;2024-01-30T07:00:16;23.10;;;12.05;;
84510;SDS011;74730;43.858;18.424;2024-01-30T07:02:41;25.55;;;12.43;;
84510;SDS011;74730;43.858;18.424;2024-01-30T07:05:07;34.05;;;16.20;;
84510;SDS011;74730;43.858;18.424;2024-01-30T07:07:33;37.03;;;18.77;;
84510;SDS011;74730;43.858;18.424;2024-01-30T07:09:58;66.95;;;27.70;;
84510;SDS011;74730;43.858;18.424;2024-01-30T07:12:24;45.63;;;23.23;;
84510;SDS011;74730;43.858;18.424;2024-01-30T07:14:51;66.18;;;28.83;;
84510;SDS011;74730;43.858;18.424;2024-01-30T07:17:17;60.78;;;28.42;;
84510;SDS011;74730;43.858;18.424;2024-01-30T07:19:42;57.20;;;29.23;;
84510;SDS011;74730;43.858;18.424;2024-01-30T07:22:08;69.57;;;32.15;;
84510;SDS011;74730;43.858;18.424;2024-01-30T07:24:34;67.75;;;34.95;;
84510;SDS011;74730;43.858;18.424;2024-01-30T07:26:59;62.20;;;29.52;;
84510;SDS011;74730;43.858;18.424;2024-01-30T07:29:25;57.58;;;31.08;;
84510;SDS011;74730;43.858;18.424;2024-01-30T07:31:51;68.88;;;33.88;;
84510;SDS011;74730;43.858;18.424;2024-01-30T07:34:16;71.22;;;35.28;;
84510;SDS011;74730;43.858;18.424;2024-01-30T07:36:42;66.15;;;30.85;;
84510;SDS011;74730;43.858;18.424;2024-01-30T07:39:08;73.90;;;34.72;;
84510;SDS011;74730;43.858;18.424;2024-01-30T07:41:33;68.93;;;32.15;;
84510;SDS011;74730;43.858;18.424;2024-01-30T07:43:59;83.85;;;37.35;;
84510;SDS011;74730;43.858;18.424;2024-01-30T07:46:25;94.90;;;42.92;;
84510;SDS011;74730;43.858;18.424;2024-01-30T07:48:51;85.20;;;39.17;;
84510;SDS011;74730;43.858;18.424;2024-01-30T07:51:16;87.88;;;40.47;;
84510;SDS011;74730;43.858;18.424;2024-01-30T07:53:42;76.00;;;37.88;;
84510;SDS011;74730;43.858;18.424;2024-01-30T07:56:07;76.85;;;38.38;;
84510;SDS011;74730;43.858;18.424;2024-01-30T07:58:33;73.90;;;35.92;;
84510;SDS011;74730;43.858;18.424;2024-01-30T08:00:58;67.38;;;34.03;;
84510;SDS011;74730;43.858;18.424;2024-01-30T08:03:25;73.93;;;38.70;;
84510;SDS011;74730;43.858;18.424;2024-01-30T08:05:51;77.18;;;38.00;;
84510;SDS011;74730;43.858;18.424;2024-01-30T08:08:16;83.10;;;38.25;;
84510;SDS011;74730;43.858;18.424;2024-01-30T08:10:42;88.78;;;44.33;;
84510;SDS011;74730;43.858;18.424;2024-01-30T08:13:08;92.95;;;43.50;;
84510;SDS011;74730;43.858;18.424;2024-01-30T08:15:34;91.70;;;42.00;;
84510;SDS011;74730;43.858;18.424;2024-01-30T08:18:00;82.18;;;40.58;;
84510;SDS011;74730;43.858;18.424;2024-01-30T08:20:26;79.55;;;37.50;;
84510;SDS011;74730;43.858;18.424;2024-01-30T08:22:52;75.97;;;36.35;;
84510;SDS011;74730;43.858;18.424;2024-01-30T08:25:17;70.03;;;35.63;;
84510;SDS011;74730;43.858;18.424;2024-01-30T08:27:43;73.47;;;37.05;;
84510;SDS011;74730;43.858;18.424;2024-01-30T08:30:10;70.53;;;37.25;;
84510;SDS011;74730;43.858;18.424;2024-01-30T08:32:36;57.30;;;31.80;;
84510;SDS011;74730;43.858;18.424;2024-01-30T08:35:01;57.75;;;31.17;;
84510;SDS011;74730;43.858;18.424;2024-01-30T08:37:30;59.30;;;32.65;;
84510;SDS011;74730;43.858;18.424;2024-01-30T08:39:56;57.33;;;31.35;;
84510;SDS011;74730;43.858;18.424;2024-01-30T08:42:25;65.00;;;33.88;;
84510;SDS011;74730;43.858;18.424;2024-01-30T08:44:51;55.75;;;32.30;;
84510;SDS011;74730;43.858;18.424;2024-01-30T08:47:18;52.90;;;29.52;;
84510;SDS011;74730;43.858;18.424;2024-01-30T08:49:44;52.30;;;30.95;;
84510;SDS011;74730;43.858;18.424;2024-01-30T08:52:10;50.47;;;25.00;;
84510;SDS011;74730;43.858;18.424;2024-01-30T08:54:36;46.17;;;26.55;;
84510;SDS011;74730;43.858;18.424;2024-01-30T08:57:02;40.28;;;23.63;;
84510;SDS011;74730;43.858;18.424;2024-01-30T08:59:27;43.53;;;25.77;;
84510;SDS011;74730;43.858;18.424;2024-01-30T09:01:53;47.45;;;27.48;;
84510;SDS011;74730;43.858;18.424;2024-01-30T09:04:20;48.53;;;28.58;;
84510;SDS011;74730;43.858;18.424;2024-01-30T09:06:47;60.75;;;34.17;;
84510;SDS011;74730;43.858;18.424;2024-01-30T09:09:13;58.10;;;31.50;;
84510;SDS011;74730;43.858;18.424;2024-01-30T09:11:39;53.50;;;31.60;;
84510;SDS011;74730;43.858;18.424;2024-01-30T09:14:05;56.97;;;31.80;;
84510;SDS011;74730;43.858;18.424;2024-01-30T09:16:31;63.50;;;36.15;;
84510;SDS011;74730;43.858;18.424;2024-01-30T09:18:56;54.80;;;30.30;;
84510;SDS011;74730;43.858;18.424;2024-01-30T09:21:22;56.55;;;32.60;;
84510;SDS011;74730;43.858;18.424;2024-01-30T09:23:48;61.10;;;33.10;;
84510;SDS011;74730;43.858;18.424;2024-01-30T09:26:13;57.50;;;32.33;;
84510;SDS011;74730;43.858;18.424;2024-01-30T09:28:40;55.65;;;30.30;;
84510;SDS011;74730;43.858;18.424;2024-01-30T09:31:10;46.38;;;26.20;;
84510;SDS011;74730;43.858;18.424;2024-01-30T09:33:36;48.08;;;26.75;;
84510;SDS011;74730;43.858;18.424;2024-01-30T09:36:02;45.03;;;24.48;;
84510;SDS011;74730;43.858;18.424;2024-01-30T09:38:28;49.92;;;27.55;;
84510;SDS011;74730;43.858;18.424;2024-01-30T09:40:54;41.17;;;25.48;;
84510;SDS011;74730;43.858;18.424;2024-01-30T09:43:23;49.60;;;29.05;;
84510;SDS011;74730;43.858;18.424;2024-01-30T09:45:52;56.45;;;31.63;;
84510;SDS011;74730;43.858;18.424;2024-01-30T09:48:19;48.40;;;27.95;;
84510;SDS011;74730;43.858;18.424;2024-01-30T09:50:45;45.22;;;24.58;;
84510;SDS011;74730;43.858;18.424;2024-01-30T09:53:11;47.70;;;27.25;;
84510;SDS011;74730;43.858;18.424;2024-01-30T09:55:39;46.15;;;25.48;;
84510;SDS011;74730;43.858;18.424;2024-01-30T09:58:08;46.40;;;24.42;;
84510;SDS011;74730;43.858;18.424;2024-01-30T10:00:33;40.08;;;22.75;;
84510;SDS011;74730;43.858;18.424;2024-01-30T10:02:59;49.88;;;25.77;;
84510;SDS011;74730;43.858;18.424;2024-01-30T10:05:26;38.70;;;23.00;;
84510;SDS011;74730;43.858;18.424;2024-01-30T10:07:53;38.83;;;21.00;;
84510;SDS011;74730;43.858;18.424;2024-01-30T10:10:21;45.22;;;24.88;;
84510;SDS011;74730;43.858;18.424;2024-01-30T10:12:48;55.42;;;29.35;;
84510;SDS011;74730;43.858;18.424;2024-01-30T10:15:14;46.38;;;25.48;;
84510;SDS011;74730;43.858;18.424;2024-01-30T10:17:40;47.40;;;23.77;;
84510;SDS011;74730;43.858;18.424;2024-01-30T10:20:08;43.13;;;24.13;;
84510;SDS011;74730;43.858;18.424;2024-01-30T10:22:34;41.00;;;22.45;;
84510;SDS011;74730;43.858;18.424;2024-01-30T10:25:00;44.20;;;24.60;;
84510;SDS011;74730;43.858;18.424;2024-01-30T10:27:26;41.97;;;23.25;;
84510;SDS011;74730;43.858;18.424;2024-01-30T10:29:52;41.88;;;22.77;;
84510;SDS011;74730;43.858;18.424;2024-01-30T10:32:19;43.33;;;22.55;;
84510;SDS011;74730;43.858;18.424;2024-01-30T10:34:45;49.15;;;24.15;;
84510;SDS011;74730;43.858;18.424;2024-01-30T10:37:11;39.58;;;22.30;;
84510;SDS011;74730;43.858;18.424;2024-01-30T10:39:40;40.88;;;21.85;;
84510;SDS011;74730;43.858;18.424;2024-01-30T10:42:15;43.38;;;21.48;;
84510;SDS011;74730;43.858;18.424;2024-01-30T10:47:39;40.08;;;20.35;;
84510;SDS011;74730;43.858;18.424;2024-01-30T10:50:07;33.40;;;18.95;;
84510;SDS011;74730;43.858;18.424;2024-01-30T10:52:34;39.60;;;20.55;;
84510;SDS011;74730;43.858;18.424;2024-01-30T10:55:00;38.83;;;19.95;;
84510;SDS011;74730;43.858;18.424;2024-01-30T10:57:26;32.70;;;19.35;;
84510;SDS011;74730;43.858;18.424;2024-01-30T10:59:53;41.15;;;22.23;;
84510;SDS011;74730;43.858;18.424;2024-01-30T11:02:22;47.45;;;21.25;;
84510;SDS011;74730;43.858;18.424;2024-01-30T11:04:49;37.53;;;22.05;;
84510;SDS011;74730;43.858;18.424;2024-01-30T11:07:18;44.60;;;23.48;;
84510;SDS011;74730;43.858;18.424;2024-01-30T11:09:52;44.78;;;22.80;;
84510;SDS011;74730;43.858;18.424;2024-01-30T11:12:25;33.63;;;17.77;;
84510;SDS011;74730;43.858;18.424;2024-01-30T11:15:11;30.67;;;16.73;;
84510;SDS011;74730;43.858;18.424;2024-01-30T11:20:09;33.58;;;19.05;;
84510;SDS011;74730;43.858;18.424;2024-01-30T11:22:35;30.60;;;16.75;;
84510;SDS011;74730;43.858;18.424;2024-01-30T11:25:01;33.17;;;16.98;;
84510;SDS011;74730;43.858;18.424;2024-01-30T11:27:28;28.50;;;17.33;;
84510;SDS011;74730;43.858;18.424;2024-01-30T11:30:03;28.85;;;15.73;;
84510;SDS011;74730;43.858;18.424;2024-01-30T11:32:30;29.50;;;15.27;;
84510;SDS011;74730;43.858;18.424;2024-01-30T11:34:56;31.95;;;18.13;;
84510;SDS011;74730;43.858;18.424;2024-01-30T11:37:21;36.65;;;21.17;;
84510;SDS011;74730;43.858;18.424;2024-01-30T11:39:51;41.20;;;24.52;;
84510;SDS011;74730;43.858;18.424;2024-01-30T11:42:19;43.17;;;24.70;;
84510;SDS011;74730;43.858;18.424;2024-01-30T11:44:48;40.00;;;23.90;;
84510;SDS011;74730;43.858;18.424;2024-01-30T11:47:14;42.00;;;23.75;;
84510;SDS011;74730;43.858;18.424;2024-01-30T11:49:41;52.97;;;26.98;;
84510;SDS011;74730;43.858;18.424;2024-01-30T11:52:07;46.67;;;25.40;;
84510;SDS011;74730;43.858;18.424;2024-01-30T11:54:33;42.55;;;24.42;;
84510;SDS011;74730;43.858;18.424;2024-01-30T11:56:59;42.08;;;23.23;;
84510;SDS011;74730;43.858;18.424;2024-01-30T11:59:25;35.92;;;21.35;;
84510;SDS011;74730;43.858;18.424;2024-01-30T12:01:51;47.47;;;24.48;;
84510;SDS011;74730;43.858;18.424;2024-01-30T12:04:17;45.20;;;24.83;;
84510;SDS011;74730;43.858;18.424;2024-01-30T12:06:43;41.08;;;24.67;;
84510;SDS011;74730;43.858;18.424;2024-01-30T12:09:09;44.95;;;23.83;;
84510;SDS011;74730;43.858;18.424;2024-01-30T12:11:44;41.83;;;22.95;;
84510;SDS011;74730;43.858;18.424;2024-01-30T12:14:13;38.53;;;21.67;;
84510;SDS011;74730;43.858;18.424;2024-01-30T12:16:39;32.63;;;19.98;;
84510;SDS011;74730;43.858;18.424;2024-01-30T12:19:06;32.15;;;19.50;;
84510;SDS011;74730;43.858;18.424;2024-01-30T12:21:33;38.72;;;20.98;;
84510;SDS011;74730;43.858;18.424;2024-01-30T12:23:59;32.38;;;19.77;;
84510;SDS011;74730;43.858;18.424;2024-01-30T12:26:25;37.75;;;21.15;;
84510;SDS011;74730;43.858;18.424;2024-01-30T12:28:53;36.55;;;21.30;;
84510;SDS011;74730;43.858;18.424;2024-01-30T12:31:27;31.05;;;20.02;;
84510;SDS011;74730;43.858;18.424;2024-01-30T12:33:53;43.10;;;21.45;;
84510;SDS011;74730;43.858;18.424;2024-01-30T12:36:23;36.70;;;19.75;;
84510;SDS011;74730;43.858;18.424;2024-01-30T12:38:49;32.78;;;18.52;;
84510;SDS011;74730;43.858;18.424;2024-01-30T12:41:15;37.25;;;18.55;;
84510;SDS011;74730;43.858;18.424;2024-01-30T12:43:41;31.70;;;17.85;;
84510;SDS011;74730;43.858;18.424;2024-01-30T12:46:07;34.63;;;17.88;;
84510;SDS011;74730;43.858;18.424;2024-01-30T12:48:33;38.00;;;18.20;;
84510;SDS011;74730;43.858;18.424;2024-01-30T12:50:59;37.67;;;21.02;;
84510;SDS011;74730;43.858;18.424;2024-01-30T12:53:25;33.03;;;18.45;;
84510;SDS011;74730;43.858;18.424;2024-01-30T12:55:51;27.05;;;16.67;;
84510;SDS011;74730;43.858;18.424;2024-01-30T12:58:16;31.10;;;17.73;;
84510;SDS011;74730;43.858;18.424;2024-01-30T13:00:42;27.10;;;16.83;;
84510;SDS011;74730;43.858;18.424;2024-01-30T13:03:09;30.73;;;16.02;;
84510;SDS011;74730;43.858;18.424;2024-01-30T13:05:35;26.90;;;16.27;;
84510;SDS011;74730;43.858;18.424;2024-01-30T13:08:01;40.08;;;16.90;;
84510;SDS011;74730;43.858;18.424;2024-01-30T13:10:27;29.52;;;17.90;;
84510;SDS011;74730;43.858;18.424;2024-01-30T13:12:52;29.15;;;16.17;;
84510;SDS011;74730;43.858;18.424;2024-01-30T13:15:18;38.90;;;17.98;;
84510;SDS011;74730;43.858;18.424;2024-01-30T13:17:44;36.67;;;18.17;;
84510;SDS011;74730;43.858;18.424;2024-01-30T13:20:12;29.52;;;16.20;;
84510;SDS011;74730;43.858;18.424;2024-01-30T13:22:43;28.88;;;15.73;;
84510;SDS011;74730;43.858;18.424;2024-01-30T13:25:08;29.60;;;17.75;;
84510;SDS011;74730;43.858;18.424;2024-01-30T13:27:34;30.70;;;16.27;;
84510;SDS011;74730;43.858;18.424;2024-01-30T13:30:00;29.63;;;18.25;;
84510;SDS011;74730;43.858;18.424;2024-01-30T13:32:26;29.25;;;16.27;;
84510;SDS011;74730;43.858;18.424;2024-01-30T13:34:51;33.67;;;17.65;;
84510;SDS011;74730;43.858;18.424;2024-01-30T13:37:17;45.67;;;22.05;;
84510;SDS011;74730;43.858;18.424;2024-01-30T13:39:43;51.10;;;26.40;;
84510;SDS011;74730;43.858;18.424;2024-01-30T13:42:08;39.65;;;21.20;;
84510;SDS011;74730;43.858;18.424;2024-01-30T13:44:35;36.72;;;20.25;;
84510;SDS011;74730;43.858;18.424;2024-01-30T13:47:01;36.60;;;21.20;;
84510;SDS011;74730;43.858;18.424;2024-01-30T13:49:27;39.40;;;20.15;;
84510;SDS011;74730;43.858;18.424;2024-01-30T13:51:54;32.85;;;17.67;;
84510;SDS011;74730;43.858;18.424;2024-01-30T13:54:20;33.67;;;18.05;;
84510;SDS011;74730;43.858;18.424;2024-01-30T13:56:46;33.47;;;17.83;;
84510;SDS011;74730;43.858;18.424;2024-01-30T13:59:11;34.13;;;17.92;;
84510;SDS011;74730;43.858;18.424;2024-01-30T14:01:37;34.67;;;17.67;;
84510;SDS011;74730;43.858;18.424;2024-01-30T14:04:02;30.77;;;16.15;;
84510;SDS011;74730;43.858;18.424;2024-01-30T14:06:28;28.67;;;16.20;;
84510;SDS011;74730;43.858;18.424;2024-01-30T14:08:54;33.97;;;15.43;;
84510;SDS011;74730;43.858;18.424;2024-01-30T14:11:20;34.17;;;15.15;;